createdAt,value
2019-04-30T00:01:25.112Z,2.10
2019-04-30T00:03:55.846Z,2.20
2019-04-30T00:06:20.480Z,2.17
2019-04-30T00:08:48.114Z,1.73
2019-04-30T00:11:19.378Z,1.60
2019-04-30T00:13:45.830Z,2.20
2019-04-30T00:16:11.606Z,1.90
2019-04-30T00:18:40.844Z,1.67
2019-04-30T00:21:09.980Z,1.43
2019-04-30T00:23:35.963Z,2.13
2019-04-30T00:26:08.706Z,2.20
2019-04-30T00:28:32.110Z,2.10
2019-04-30T00:30:59.707Z,2.10
2019-04-30T00:33:28.049Z,1.63
2019-04-30T00:35:57.969Z,1.83
2019-04-30T00:38:25.292Z,2.37
2019-04-30T00:40:52.086Z,2.00
2019-04-30T00:43:19.849Z,2.03
2019-04-30T00:45:47.721Z,2.50
2019-04-30T00:48:19.385Z,2.62
2019-04-30T00:50:45.653Z,2.17
2019-04-30T00:53:12.909Z,2.70
2019-04-30T00:55:44.338Z,2.67
2019-04-30T00:58:07.470Z,2.33
2019-04-30T01:00:37.161Z,2.53
2019-04-30T01:03:09.522Z,2.30
2019-04-30T01:05:39.543Z,2.80
2019-04-30T01:08:06.969Z,2.53
2019-04-30T01:10:34.773Z,2.93
2019-04-30T01:13:08.136Z,3.03
2019-04-30T01:15:29.398Z,3.30
2019-04-30T01:17:56.953Z,3.03
2019-04-30T01:20:29.124Z,2.90
2019-04-30T01:22:53.537Z,3.43
2019-04-30T01:25:21.063Z,3.43
2019-04-30T01:27:49.579Z,3.07
2019-04-30T01:30:21.082Z,3.43
2019-04-30T01:32:44.771Z,3.73
2019-04-30T01:35:14.037Z,3.47
2019-04-30T01:37:41.667Z,3.50
2019-04-30T01:40:13.570Z,3.33
2019-04-30T01:42:41.171Z,3.40
2019-04-30T01:45:05.603Z,4.20
2019-04-30T01:47:33.161Z,3.80
2019-04-30T01:50:04.705Z,4.00
2019-04-30T01:55:41.408Z,4.15
2019-04-30T01:58:19.385Z,3.87
2019-04-30T02:00:51.561Z,3.37
2019-04-30T02:03:19.384Z,3.47
2019-04-30T02:05:46.907Z,3.53
2019-04-30T02:08:14.570Z,4.90
2019-04-30T02:10:42.094Z,3.90
2019-04-30T02:13:09.657Z,4.33
2019-04-30T02:15:38.983Z,4.90
2019-04-30T02:18:05.730Z,4.70
2019-04-30T02:20:34.040Z,4.67
2019-04-30T02:23:01.669Z,4.23
2019-04-30T02:25:29.657Z,5.23
2019-04-30T02:27:58.591Z,4.83
2019-04-30T02:30:25.301Z,4.73
2019-04-30T02:32:52.867Z,4.37
2019-04-30T02:35:28.794Z,4.53
2019-04-30T02:38:00.721Z,4.77
2019-04-30T02:40:30.173Z,4.77
2019-04-30T02:42:58.978Z,4.30
2019-04-30T02:45:24.039Z,4.73
2019-04-30T02:47:51.703Z,4.77
2019-04-30T02:50:22.467Z,3.78
2019-04-30T02:52:47.032Z,4.67
2019-04-30T02:55:14.684Z,4.93
2019-04-30T02:57:42.377Z,4.73
2019-04-30T03:00:15.944Z,4.70
2019-04-30T03:02:43.506Z,4.87
2019-04-30T03:05:13.750Z,4.20
2019-04-30T03:07:40.829Z,4.93
2019-04-30T03:10:09.798Z,4.67
2019-04-30T03:12:34.765Z,4.80
2019-04-30T03:15:02.359Z,4.90
2019-04-30T03:17:29.927Z,4.80
2019-04-30T03:20:00.253Z,4.63
2019-04-30T03:22:29.956Z,5.10
2019-04-30T03:24:54.840Z,4.87
2019-04-30T03:27:24.766Z,5.17
2019-04-30T03:29:50.457Z,4.53
2019-04-30T03:32:21.544Z,4.50
2019-04-30T03:34:45.355Z,4.67
2019-04-30T03:37:14.416Z,5.00
2019-04-30T03:39:42.076Z,4.83
2019-04-30T03:42:10.487Z,6.53
2019-04-30T03:44:40.078Z,4.80
2019-04-30T03:47:06.396Z,5.43
2019-04-30T03:49:33.953Z,4.90
2019-04-30T03:52:02.469Z,5.10
2019-04-30T03:54:30.164Z,5.30
2019-04-30T03:57:00.743Z,5.53
2019-04-30T03:59:26.616Z,5.93
2019-04-30T04:01:56.016Z,5.33
2019-04-30T04:04:24.515Z,5.37
2019-04-30T04:06:52.063Z,5.90
2019-04-30T04:09:25.570Z,5.43
2019-04-30T04:11:53.188Z,5.13
2019-04-30T04:14:20.878Z,6.30
2019-04-30T04:16:50.941Z,5.37
2019-04-30T04:19:16.207Z,5.00
2019-04-30T04:21:43.967Z,5.32
2019-04-30T04:24:11.531Z,5.80
2019-04-30T04:26:43.375Z,5.63
2019-04-30T04:29:09.413Z,5.57
2019-04-30T04:31:34.612Z,5.10
2019-04-30T04:34:03.849Z,6.57
2019-04-30T04:36:31.437Z,5.37
2019-04-30T04:39:00.264Z,5.70
2019-04-30T04:41:29.575Z,5.07
2019-04-30T04:43:55.175Z,5.33
2019-04-30T04:46:22.719Z,4.93
2019-04-30T04:48:50.451Z,5.30
2019-04-30T04:51:33.381Z,5.67
2019-04-30T04:53:45.704Z,5.47
2019-04-30T04:56:13.267Z,5.87
2019-04-30T04:58:40.803Z,6.07
2019-04-30T05:01:11.685Z,5.63
2019-04-30T05:03:36.771Z,6.70
2019-04-30T05:06:04.340Z,6.57
2019-04-30T05:08:31.989Z,6.57
2019-04-30T05:10:59.618Z,5.80
2019-04-30T05:13:28.953Z,6.37
2019-04-30T05:15:54.804Z,7.10
2019-04-30T05:18:22.821Z,6.13
2019-04-30T05:20:50.891Z,5.97
2019-04-30T05:23:21.552Z,5.00
2019-04-30T05:25:46.280Z,5.00
2019-04-30T05:28:13.812Z,7.43
2019-04-30T05:30:42.328Z,5.47
2019-04-30T05:33:09.989Z,7.53
2019-04-30T05:35:38.869Z,6.73
2019-04-30T05:38:05.427Z,6.90
2019-04-30T05:40:33.046Z,6.63
2019-04-30T05:43:01.463Z,6.60
2019-04-30T05:45:29.137Z,7.00
2019-04-30T05:47:58.631Z,6.67
2019-04-30T05:50:24.550Z,7.57
2019-04-30T05:52:52.895Z,7.30
2019-04-30T05:55:20.701Z,6.07
2019-04-30T05:57:55.812Z,7.75
2019-04-30T06:00:19.060Z,7.07
2019-04-30T06:02:46.371Z,6.97
2019-04-30T06:05:13.931Z,6.60
2019-04-30T06:07:41.590Z,6.50
2019-04-30T06:10:13.697Z,7.80
2019-04-30T06:15:35.945Z,7.90
2019-04-30T06:18:12.844Z,6.97
2019-04-30T06:20:31.804Z,6.90
2019-04-30T06:22:59.721Z,7.07
2019-04-30T06:25:32.124Z,6.17
2019-04-30T06:27:54.684Z,6.83
2019-04-30T06:30:22.341Z,6.40
2019-04-30T06:32:50.005Z,5.43
2019-04-30T06:35:19.301Z,6.17
2019-04-30T06:37:45.490Z,6.47
2019-04-30T06:40:14.249Z,5.33
2019-04-30T06:42:41.975Z,5.70
2019-04-30T06:45:10.417Z,5.80
2019-04-30T06:47:38.949Z,6.00
2019-04-30T06:50:05.775Z,6.50
2019-04-30T06:52:33.604Z,5.90
2019-04-30T06:55:01.346Z,5.30
2019-04-30T06:57:29.552Z,4.90
2019-04-30T06:59:59.474Z,6.17
2019-04-30T07:02:25.034Z,6.07
2019-04-30T07:04:53.412Z,5.03
2019-04-30T07:07:22.950Z,5.60
2019-04-30T07:10:03.617Z,6.03
2019-04-30T07:12:36.531Z,5.73
2019-04-30T07:15:04.058Z,5.90
2019-04-30T07:17:31.720Z,5.33
2019-04-30T07:20:00.130Z,5.80
2019-04-30T07:22:39.415Z,6.40
2019-04-30T07:24:56.069Z,5.83
2019-04-30T07:27:24.327Z,5.77
2019-04-30T07:29:51.522Z,6.20
2019-04-30T07:32:20.003Z,6.20
2019-04-30T07:34:49.323Z,6.20
2019-04-30T07:37:20.747Z,5.90
2019-04-30T07:39:44.426Z,6.70
2019-04-30T07:42:12.020Z,6.80
2019-04-30T07:44:39.649Z,6.50
2019-04-30T07:47:09.509Z,6.67
2019-04-30T07:49:46.863Z,6.20
2019-04-30T07:52:05.025Z,5.90
2019-04-30T07:54:32.046Z,6.37
2019-04-30T07:57:00.484Z,5.80
2019-04-30T07:59:27.268Z,5.67
2019-04-30T08:02:06.401Z,6.00
2019-04-30T08:07:16.935Z,6.80
2019-04-30T08:09:44.574Z,6.30
2019-04-30T08:12:22.038Z,6.67
2019-04-30T08:14:40.577Z,6.43
2019-04-30T08:17:09.008Z,6.40
2019-04-30T08:19:38.470Z,5.90
2019-04-30T08:22:04.138Z,6.13
2019-04-30T08:24:31.695Z,5.80
2019-04-30T08:27:01.163Z,5.57
2019-04-30T08:29:27.130Z,6.97
2019-04-30T08:31:54.679Z,6.03
2019-04-30T08:34:22.273Z,5.63
2019-04-30T08:36:49.935Z,5.60
2019-04-30T08:39:17.463Z,6.27
2019-04-30T08:41:45.873Z,6.50
2019-04-30T08:44:13.434Z,5.80
2019-04-30T08:46:41.199Z,6.00
2019-04-30T08:49:09.827Z,5.97
2019-04-30T08:51:38.278Z,6.80
2019-04-30T08:54:04.087Z,5.87
2019-04-30T08:56:31.605Z,5.67
2019-04-30T08:58:59.498Z,6.43
2019-04-30T09:01:26.724Z,6.37
2019-04-30T09:03:54.532Z,4.83
2019-04-30T09:06:22.835Z,5.27
2019-04-30T09:08:50.357Z,5.10
2019-04-30T09:11:24.729Z,5.70
2019-04-30T09:13:45.716Z,5.53
2019-04-30T09:16:14.332Z,6.07
2019-04-30T09:18:41.959Z,6.87
2019-04-30T09:21:10.339Z,6.10
2019-04-30T09:23:44.680Z,5.50
2019-04-30T09:26:08.673Z,6.13
2019-04-30T09:28:34.856Z,6.77
2019-04-30T09:31:02.383Z,6.53
2019-04-30T09:33:29.942Z,5.83
2019-04-30T09:35:59.411Z,5.97
2019-04-30T09:38:26.087Z,5.37
2019-04-30T09:40:54.154Z,5.40
2019-04-30T09:43:21.922Z,6.07
2019-04-30T09:45:49.831Z,5.30
2019-04-30T09:48:18.980Z,6.10
2019-04-30T09:50:45.196Z,5.67
2019-04-30T09:53:12.936Z,5.95
2019-04-30T09:55:40.544Z,5.57
2019-04-30T09:58:16.237Z,6.87
2019-04-30T10:00:35.725Z,6.97
2019-04-30T10:03:05.044Z,6.07
2019-04-30T10:05:32.384Z,6.27
2019-04-30T10:08:00.018Z,6.07
2019-04-30T10:10:28.927Z,6.33
2019-04-30T10:12:55.270Z,6.60
2019-04-30T10:18:17.804Z,7.30
2019-04-30T10:20:45.418Z,7.20
2019-04-30T10:23:13.043Z,7.13
2019-04-30T10:25:40.668Z,5.70
2019-04-30T10:28:10.025Z,6.27
2019-04-30T10:30:36.126Z,6.27
2019-04-30T10:33:03.721Z,6.37
2019-04-30T10:35:31.355Z,7.33
2019-04-30T10:37:59.808Z,7.53
2019-04-30T10:40:28.690Z,6.37
2019-04-30T10:42:55.051Z,5.90
2019-04-30T10:45:22.576Z,7.30
2019-04-30T10:47:51.127Z,6.13
2019-04-30T10:50:19.505Z,7.73
2019-04-30T10:52:49.052Z,7.60
2019-04-30T10:55:14.854Z,7.20
2019-04-30T10:57:42.518Z,8.50
2019-04-30T11:00:10.147Z,9.32
2019-04-30T11:02:38.708Z,8.83
2019-04-30T11:05:06.014Z,7.17
2019-04-30T11:07:34.392Z,6.67
2019-04-30T11:10:04.509Z,6.30
2019-04-30T11:12:32.823Z,6.73
2019-04-30T11:15:00.381Z,7.13
2019-04-30T11:17:30.079Z,7.30
2019-04-30T11:19:56.359Z,6.47
2019-04-30T11:22:24.091Z,7.53
2019-04-30T11:24:58.899Z,6.77
2019-04-30T11:27:20.769Z,5.93
2019-04-30T11:29:49.516Z,6.30
2019-04-30T11:32:15.678Z,6.97
2019-04-30T11:34:43.860Z,7.03
2019-04-30T11:37:11.659Z,6.20
2019-04-30T11:39:39.244Z,6.07
2019-04-30T11:42:06.768Z,5.83
2019-04-30T11:44:34.395Z,5.80
2019-04-30T11:47:07.037Z,6.43
2019-04-30T11:49:34.558Z,6.67
2019-04-30T11:52:03.858Z,7.57
2019-04-30T11:54:32.274Z,7.70
2019-04-30T11:56:59.834Z,5.87
2019-04-30T11:59:29.591Z,7.50
2019-04-30T12:01:55.086Z,6.43
2019-04-30T12:04:22.612Z,6.70
2019-04-30T12:06:50.135Z,7.17
2019-04-30T12:09:23.396Z,7.03
2019-04-30T12:11:51.126Z,6.67
2019-04-30T12:14:20.276Z,6.43
2019-04-30T12:16:47.915Z,6.20
2019-04-30T12:19:15.678Z,5.90
2019-04-30T12:21:43.272Z,6.20
2019-04-30T12:24:10.865Z,6.30
2019-04-30T12:26:38.899Z,6.67
2019-04-30T12:29:06.053Z,6.00
2019-04-30T12:31:33.714Z,6.17
2019-04-30T12:34:01.308Z,6.57
2019-04-30T12:36:29.139Z,6.37
2019-04-30T12:38:56.698Z,6.60
2019-04-30T12:41:25.077Z,5.37
2019-04-30T12:43:53.421Z,5.13
2019-04-30T12:46:21.274Z,4.53
2019-04-30T12:48:49.434Z,4.30
2019-04-30T12:51:23.063Z,4.57
2019-04-30T12:54:02.335Z,5.40
2019-04-30T12:56:33.541Z,4.60
2019-04-30T12:59:01.199Z,5.00
2019-04-30T13:01:32.137Z,4.07
2019-04-30T13:03:58.901Z,4.43
2019-04-30T13:06:24.717Z,4.63
2019-04-30T13:08:52.931Z,4.47
2019-04-30T13:11:21.541Z,4.80
2019-04-30T13:13:50.401Z,4.83
2019-04-30T13:16:16.660Z,5.00
2019-04-30T13:18:45.136Z,4.57
2019-04-30T13:21:13.481Z,4.17
2019-04-30T13:23:41.071Z,3.70
2019-04-30T13:26:09.048Z,4.28
2019-04-30T13:31:35.424Z,5.50
2019-04-30T13:34:09.636Z,4.78
2019-04-30T13:36:37.258Z,4.77
2019-04-30T13:39:10.410Z,3.53
2019-04-30T13:41:42.730Z,3.78
2019-04-30T13:44:09.677Z,3.90
2019-04-30T13:46:36.085Z,4.00
2019-04-30T13:49:04.156Z,3.50
2019-04-30T13:51:31.815Z,3.57
2019-04-30T13:53:59.613Z,4.13
2019-04-30T13:56:28.680Z,4.33
2019-04-30T13:58:54.865Z,4.43
2019-04-30T14:01:22.873Z,5.63
2019-04-30T14:03:50.486Z,5.83
2019-04-30T14:06:19.032Z,5.60
2019-04-30T14:08:49.763Z,4.37
2019-04-30T14:11:18.993Z,4.82
2019-04-30T14:13:46.074Z,5.10
2019-04-30T14:16:13.736Z,5.20
2019-04-30T14:18:41.463Z,5.07
2019-04-30T14:21:09.434Z,6.13
2019-04-30T14:23:37.125Z,5.87
2019-04-30T14:26:04.783Z,5.00
2019-04-30T14:28:32.312Z,5.20
2019-04-30T14:30:59.966Z,5.50
2019-04-30T14:33:29.374Z,5.07
2019-04-30T14:35:55.969Z,5.03
2019-04-30T14:38:23.531Z,5.80
2019-04-30T14:40:53.019Z,5.10
2019-04-30T14:43:20.566Z,4.57
2019-04-30T14:45:53.663Z,5.50
2019-04-30T14:48:23.774Z,5.10
2019-04-30T14:50:51.758Z,5.63
2019-04-30T14:53:34.162Z,5.30
2019-04-30T14:59:00.072Z,6.85
2019-04-30T15:01:33.083Z,6.00
2019-04-30T15:04:00.741Z,5.00
2019-04-30T15:06:28.267Z,5.53
2019-04-30T15:08:56.579Z,5.47
2019-04-30T15:11:24.957Z,6.13
2019-04-30T15:13:53.295Z,4.80
2019-04-30T15:16:20.926Z,4.87
2019-04-30T15:18:48.615Z,4.57
2019-04-30T15:21:16.173Z,5.27
2019-04-30T15:23:58.628Z,4.83
2019-04-30T15:26:22.932Z,4.53
2019-04-30T15:28:44.594Z,5.27
2019-04-30T15:31:12.207Z,4.07
2019-04-30T15:33:39.935Z,4.53
2019-04-30T15:36:09.758Z,4.83
2019-04-30T15:38:41.099Z,4.90
2019-04-30T15:41:08.715Z,5.17
2019-04-30T15:43:37.092Z,5.30
2019-04-30T15:46:05.613Z,5.07
2019-04-30T15:48:33.298Z,4.40
2019-04-30T15:51:01.059Z,4.80
2019-04-30T15:53:28.856Z,4.90
2019-04-30T15:55:56.479Z,4.57
2019-04-30T15:58:24.036Z,4.57
2019-04-30T16:00:51.594Z,4.85
2019-04-30T16:03:24.684Z,4.70
2019-04-30T16:05:52.241Z,4.57
2019-04-30T16:08:20.620Z,4.80
2019-04-30T16:10:48.150Z,4.63
2019-04-30T16:13:19.529Z,4.47
2019-04-30T16:15:46.028Z,4.37
2019-04-30T16:18:13.826Z,4.03
2019-04-30T16:20:41.457Z,4.60
2019-04-30T16:23:09.207Z,4.68
2019-04-30T16:25:39.059Z,4.53
2019-04-30T16:28:08.543Z,4.67
2019-04-30T16:30:34.209Z,4.40
2019-04-30T16:33:04.201Z,4.23
2019-04-30T16:35:31.821Z,5.00
2019-04-30T16:38:00.124Z,5.40
2019-04-30T16:40:28.980Z,4.13
2019-04-30T16:42:56.227Z,4.90
2019-04-30T16:45:23.821Z,4.60
2019-04-30T16:47:52.369Z,5.17
2019-04-30T16:50:20.134Z,4.50
2019-04-30T16:52:49.705Z,5.10
2019-04-30T16:55:15.556Z,4.23
2019-04-30T16:57:43.182Z,5.27
2019-04-30T17:00:10.706Z,5.00
2019-04-30T17:02:39.296Z,5.13
2019-04-30T17:05:08.856Z,4.30
2019-04-30T17:07:50.635Z,4.67
2019-04-30T17:10:18.861Z,4.43
2019-04-30T17:12:51.239Z,4.77
2019-04-30T17:15:21.827Z,4.78
2019-04-30T17:17:49.878Z,5.27
2019-04-30T17:20:18.520Z,6.00
2019-04-30T17:22:44.636Z,5.33
2019-04-30T17:25:12.196Z,5.30
2019-04-30T17:27:39.827Z,5.47
2019-04-30T17:30:09.112Z,5.60
2019-04-30T17:32:36.713Z,5.83
2019-04-30T17:35:05.194Z,6.27
2019-04-30T17:37:33.511Z,5.47
2019-04-30T17:40:01.169Z,5.60
2019-04-30T17:42:29.753Z,5.57
2019-04-30T17:44:59.426Z,5.20
2019-04-30T17:47:25.105Z,5.30
2019-04-30T17:49:52.705Z,5.17
2019-04-30T17:52:20.292Z,5.40
2019-04-30T17:54:49.242Z,4.60
2019-04-30T17:57:29.324Z,5.00
2019-04-30T17:59:44.087Z,4.93
2019-04-30T18:02:12.463Z,5.82
2019-04-30T18:04:40.020Z,4.80
2019-04-30T18:07:09.857Z,4.77
2019-04-30T18:09:35.648Z,5.57
2019-04-30T18:12:04.507Z,5.30
2019-04-30T18:14:32.066Z,5.67
2019-04-30T18:16:59.586Z,6.00
2019-04-30T18:19:29.846Z,5.40
2019-04-30T18:21:59.662Z,5.23
2019-04-30T18:24:31.307Z,5.20
2019-04-30T18:27:04.363Z,5.07
2019-04-30T18:29:31.922Z,5.07
2019-04-30T18:31:59.956Z,4.30
2019-04-30T18:34:29.187Z,4.63
2019-04-30T18:36:55.253Z,4.87
2019-04-30T18:39:22.842Z,4.80
2019-04-30T18:41:51.151Z,4.87
2019-04-30T18:44:19.525Z,4.87
2019-04-30T18:46:46.709Z,5.67
2019-04-30T18:49:14.334Z,5.47
2019-04-30T18:51:42.681Z,4.60
2019-04-30T18:54:09.519Z,4.83
2019-04-30T18:56:38.940Z,6.20
2019-04-30T18:59:05.013Z,5.40
2019-04-30T19:01:32.640Z,5.03
2019-04-30T19:04:01.142Z,5.87
2019-04-30T19:06:29.506Z,5.33
2019-04-30T19:09:00.275Z,4.93
2019-04-30T19:11:30.207Z,4.93
2019-04-30T19:14:15.754Z,4.93
2019-04-30T19:16:44.060Z,5.10
2019-04-30T19:19:12.891Z,5.60
2019-04-30T19:21:40.453Z,5.83
2019-04-30T19:24:08.613Z,6.12
2019-04-30T19:26:35.526Z,5.50
2019-04-30T19:29:07.468Z,6.10
2019-04-30T19:31:33.126Z,5.13
2019-04-30T19:34:00.717Z,5.77
2019-04-30T19:36:37.406Z,6.00
2019-04-30T19:38:56.926Z,5.40
2019-04-30T19:41:24.617Z,5.93
2019-04-30T19:43:52.965Z,6.20
2019-04-30T19:46:20.522Z,5.43
2019-04-30T19:48:50.705Z,5.13
2019-04-30T19:51:17.315Z,5.97
2019-04-30T19:53:44.979Z,5.70
2019-04-30T19:56:12.502Z,6.13
2019-04-30T19:58:55.538Z,6.63
2019-04-30T20:01:09.495Z,5.50
2019-04-30T20:03:37.024Z,5.50
2019-04-30T20:06:04.613Z,6.73
2019-04-30T20:08:32.238Z,6.57
2019-04-30T20:10:59.866Z,6.40
2019-04-30T20:13:36.292Z,5.30
2019-04-30T20:15:55.423Z,6.83
2019-04-30T20:18:23.190Z,6.10
2019-04-30T20:20:52.039Z,6.33
2019-04-30T20:23:19.471Z,6.23
2019-04-30T20:25:47.086Z,6.63
2019-04-30T20:28:14.794Z,6.57
2019-04-30T20:30:42.377Z,7.50
2019-04-30T20:33:09.903Z,6.20
2019-04-30T20:35:39.023Z,8.10
2019-04-30T20:38:10.954Z,6.97
2019-04-30T20:40:43.565Z,5.77
2019-04-30T20:43:06.271Z,7.80
2019-04-30T20:45:34.718Z,7.33
2019-04-30T20:48:02.410Z,6.10
2019-04-30T20:50:30.139Z,6.77
2019-04-30T20:52:58.865Z,8.07
2019-04-30T20:55:25.432Z,7.57
2019-04-30T20:57:53.779Z,6.78
2019-04-30T21:00:21.306Z,7.57
2019-04-30T21:02:48.864Z,6.43
2019-04-30T21:05:16.900Z,7.22
2019-04-30T21:07:44.528Z,6.53
2019-04-30T21:10:12.094Z,7.00
2019-04-30T21:12:39.926Z,8.00
2019-04-30T21:15:09.586Z,6.70
2019-04-30T21:17:35.381Z,7.10
2019-04-30T21:20:03.765Z,6.50
2019-04-30T21:22:32.209Z,7.53
2019-04-30T21:25:00.578Z,6.90
2019-04-30T21:27:30.464Z,8.87
2019-04-30T21:29:58.940Z,7.70
2019-04-30T21:32:25.141Z,7.33
2019-04-30T21:35:03.214Z,7.83
2019-04-30T21:37:32.722Z,7.53
2019-04-30T21:40:00.280Z,7.97
2019-04-30T21:42:28.491Z,8.00
2019-04-30T21:44:56.149Z,7.50
2019-04-30T21:47:24.456Z,7.50
2019-04-30T21:49:52.128Z,8.03
2019-04-30T21:52:21.825Z,8.20
2019-04-30T21:54:50.954Z,8.17
2019-04-30T21:57:18.685Z,7.72
2019-04-30T21:59:48.667Z,8.30
2019-04-30T22:02:15.984Z,7.53
2019-04-30T22:04:43.753Z,7.93
2019-04-30T22:07:11.300Z,7.40
2019-04-30T22:09:41.150Z,7.83
2019-04-30T22:12:09.266Z,7.20
2019-04-30T22:14:39.535Z,7.20
2019-04-30T22:17:09.554Z,7.83
2019-04-30T22:19:39.532Z,8.43
2019-04-30T22:22:09.252Z,7.63
2019-04-30T22:24:39.764Z,9.00
2019-04-30T22:27:07.395Z,7.07
2019-04-30T22:29:39.381Z,8.33
2019-04-30T22:32:05.377Z,6.87
2019-04-30T22:34:36.204Z,7.95
2019-04-30T22:37:04.349Z,8.53
2019-04-30T22:39:31.935Z,8.30
2019-04-30T22:42:00.242Z,7.97
2019-04-30T22:44:28.038Z,8.70
2019-04-30T22:46:58.411Z,8.13
2019-04-30T22:49:23.395Z,9.27
2019-04-30T22:51:51.021Z,8.37
2019-04-30T22:54:18.682Z,7.72
2019-04-30T22:56:46.268Z,8.33
2019-04-30T22:59:13.893Z,7.93
2019-04-30T23:01:45.239Z,9.57
2019-04-30T23:04:13.616Z,8.60
2019-04-30T23:06:42.304Z,8.17
2019-04-30T23:09:10.654Z,8.23
2019-04-30T23:11:38.238Z,7.83
2019-04-30T23:14:05.826Z,9.30
2019-04-30T23:16:34.340Z,8.13
2019-04-30T23:19:01.933Z,9.60
2019-04-30T23:21:29.767Z,9.03
2019-04-30T23:23:57.901Z,6.97
2019-04-30T23:26:25.596Z,8.07
2019-04-30T23:28:53.369Z,8.30
2019-04-30T23:31:22.150Z,8.00
2019-04-30T23:33:50.937Z,7.00
2019-04-30T23:36:19.416Z,8.77
2019-04-30T23:38:47.143Z,7.23
2019-04-30T23:41:14.837Z,8.17
2019-04-30T23:43:42.741Z,8.23
2019-04-30T23:46:10.634Z,6.67
2019-04-30T23:48:38.271Z,7.17
2019-04-30T23:51:06.568Z,7.90
2019-04-30T23:53:34.466Z,8.13
2019-04-30T23:56:02.066Z,6.72
2019-04-30T23:58:30.236Z,8.23
